TimeEST,TemperatureF,Dew PointF,Humidity,Sea Level PressureIn,VisibilityMPH,Wind Direction,Wind SpeedMPH,Gust SpeedMPH,PrecipitationIn,Events,Conditions,WindDirDegrees,DateUTC
12:00 AM,34.5,27.5,76,30.35,-9999.0,ESE,3.5,-,N/A,,Unknown,110,2013-01-11 05:00:00
1:00 AM,35,29,71,30.31,,ESE,4.6,,,,,110,2013-01-11 06:00:00
1:00 AM,35.4,28.9,77,30.31,-9999.0,ESE,4.6,-,N/A,,Unknown,110,2013-01-11 06:00:00
2:00 AM,36.0,28.8,75,30.26,-9999.0,ESE,4.6,-,N/A,,Unknown,110,2013-01-11 07:00:00
3:00 AM,36.1,28.9,75,30.24,-9999.0,East,3.5,-,N/A,,Unknown,90,2013-01-11 08:00:00
4:00 AM,36.0,30.7,81,30.20,-9999.0,East,4.6,-,N/A,,Unknown,100,2013-01-11 09:00:00
5:00 AM,36.3,30.2,78,30.17,-9999.0,East,4.6,-,N/A,,Unknown,90,2013-01-11 10:00:00
6:00 AM,36.3,30.6,80,30.12,-9999.0,East,6.9,-,N/A,,Unknown,90,2013-01-11 11:00:00
7:00 AM,36,31,73,30.10,,ESE,3.5,,,,,110,2013-01-11 12:00:00
7:00 AM,36.3,30.6,80,30.10,-9999.0,ESE,3.5,-,N/A,,Unknown,110,2013-01-11 12:00:00
8:00 AM,36.3,31.3,82,30.09,-9999.0,South,1.2,-,N/A,,Unknown,190,2013-01-11 13:00:00
9:00 AM,36.3,31.3,82,30.05,-9999.0,East,3.5,-,N/A,,Unknown,100,2013-01-11 14:00:00
10:00 AM,37.8,33.6,85,30.02,-9999.0,ESE,3.5,-,N/A,,Unknown,110,2013-01-11 15:00:00
11:00 AM,38.7,35.8,89,29.97,-9999.0,ESE,3.5,-,0.02,,Unknown,110,2013-01-11 16:00:00
12:00 PM,39.7,36.7,89,29.91,-9999.0,East,3.5,-,N/A,,Unknown,100,2013-01-11 17:00:00
1:00 PM,41,38,83,29.87,,East,2.3,,,,,100,2013-01-11 18:00:00
1:00 PM,40.8,37.6,88,29.87,-9999.0,East,2.3,-,N/A,,Unknown,100,2013-01-11 18:00:00
2:00 PM,49.1,42.3,77,29.83,-9999.0,South,11.5,19.6,N/A,,Unknown,190,2013-01-11 19:00:00
3:00 PM,48.2,42.3,80,29.85,-9999.0,SW,4.6,-,N/A,,Unknown,220,2013-01-11 20:00:00
4:00 PM,48.4,42.4,80,29.86,-9999.0,SW,8.1,-,N/A,,Unknown,230,2013-01-11 21:00:00
5:00 PM,46.4,43.9,91,29.85,-9999.0,SW,8.1,-,N/A,,Unknown,220,2013-01-11 22:00:00
6:00 PM,47.5,44.1,88,29.86,-9999.0,SW,13.8,-,N/A,,Unknown,220,2013-01-11 23:00:00
7:00 PM,48,44,79,29.87,,SW,8.1,,,,,230,2013-01-12 00:00:00
7:00 PM,47.8,43.5,85,29.87,-9999.0,SW,8.1,-,N/A,,Unknown,230,2013-01-12 00:00:00
8:00 PM,48.4,44.1,85,29.88,-9999.0,SW,8.1,-,N/A,,Unknown,230,2013-01-12 01:00:00
9:00 PM,48.6,44.2,85,29.88,-9999.0,SW,9.2,-,N/A,,Unknown,220,2013-01-12 02:00:00
10:00 PM,50.2,45.7,85,29.89,-9999.0,SW,9.2,-,N/A,,Unknown,230,2013-01-12 03:00:00